Time;durP1;ratioP1;P1;durP2;ratioP2;P2;SDS_P1;SDS_P2;PMS_P1;PMS_P2;Temp;Humidity;BMP_temperature;BMP_pressure;BME280_temperature;BME280_humidity;BME280_pressure;Samples;Min_cycle;Max_cycle;Signal;HPM_P1;HPM_P2
2022/04/01 00:00:02;;;;;;;4.75;1.40;;;1.40;99.90;;;;;;5032824;28;20057;-77
2022/04/01 00:02:28;;;;;;;5.05;1.23;;;1.40;99.90;;;;;;5032334;28;20127;-78
2022/04/01 00:04:53;;;;;;;3.63;1.15;;;1.40;99.90;;;;;;5022548;28;20045;-77
2022/04/01 00:07:19;;;;;;;5.13;1.35;;;1.40;99.90;;;;;;5019979;28;20053;-77
2022/04/01 00:09:45;;;;;;;3.90;1.00;;;1.40;99.90;;;;;;5027349;28;20778;-77
2022/04/01 00:12:11;;;;;;;3.20;1.15;;;1.40;99.90;;;;;;5035597;28;20045;-77
2022/04/01 00:14:37;;;;;;;4.68;1.60;;;1.40;99.90;;;;;;5033583;28;20053;-77
2022/04/01 00:17:03;;;;;;;2.72;1.30;;;1.40;99.90;;;;;;5034159;28;20794;-77
2022/04/01 00:19:29;;;;;;;2.97;1.10;;;1.40;99.90;;;;;;5024433;28;20058;-77
2022/04/01 00:21:55;;;;;;;3.08;1.30;;;1.40;99.90;;;;;;5033275;28;20049;-77
2022/04/01 00:24:21;;;;;;;3.50;1.20;;;1.40;99.90;;;;;;5032151;28;20125;-77
2022/04/01 00:26:47;;;;;;;3.13;0.90;;;1.60;99.90;;;;;;5030392;28;20762;-77
2022/04/01 00:29:16;;;;;;;4.75;1.52;;;1.40;99.90;;;;;;5024715;28;20060;-77
2022/04/01 00:31:42;;;;;;;3.53;1.38;;;1.40;99.90;;;;;;5030784;28;20231;-77
2022/04/01 00:34:17;;;;;;;2.95;1.00;;;1.40;99.90;;;;;;5022714;28;20056;-77
2022/04/01 00:36:50;;;;;;;3.80;1.35;;;1.40;99.90;;;;;;5033666;28;20488;-77
2022/04/01 00:39:17;;;;;;;3.47;1.30;;;1.40;99.90;;;;;;5036499;28;20045;-76
2022/04/01 00:41:44;;;;;;;4.32;1.10;;;1.40;99.90;;;;;;5022148;28;20428;-77
2022/04/01 00:44:25;;;;;;;3.33;1.30;;;1.40;99.90;;;;;;5035954;28;20096;-77
2022/04/01 00:46:53;;;;;;;3.55;1.20;;;1.50;99.90;;;;;;5030333;28;20831;-77
2022/04/01 00:49:20;;;;;;;6.05;1.67;;;1.40;99.90;;;;;;5023331;28;20092;-77
2022/04/01 00:51:48;;;;;;;14.00;1.88;;;1.50;99.90;;;;;;5032693;28;20175;-77
2022/04/01 00:54:15;;;;;;;4.40;1.30;;;1.60;99.90;;;;;;5028514;28;20246;-77
2022/04/01 00:56:41;;;;;;;4.43;1.30;;;2.00;99.90;;;;;;5029357;28;20843;-77
2022/04/01 00:59:08;;;;;;;3.90;1.13;;;2.40;99.90;;;;;;5033171;28;20176;-77
2022/04/01 01:01:35;;;;;;;5.38;1.20;;;1.50;99.90;;;;;;5023177;28;20888;-77
2022/04/01 01:04:03;;;;;;;3.70;1.40;;;1.50;99.90;;;;;;5010755;28;20049;-77
2022/04/01 01:06:31;;;;;;;4.18;1.38;;;1.50;99.90;;;;;;5035463;28;20268;-77
2022/04/01 01:08:58;;;;;;;5.97;1.13;;;1.60;99.90;;;;;;5034200;28;20041;-77
2022/04/01 01:11:25;;;;;;;2.83;1.08;;;1.50;99.90;;;;;;5024894;28;20053;-77
2022/04/01 01:13:51;;;;;;;6.78;1.10;;;1.60;99.90;;;;;;5032143;28;20499;-77
2022/04/01 01:16:17;;;;;;;4.22;1.20;;;1.60;99.90;;;;;;5023841;28;20580;-77
2022/04/01 01:18:43;;;;;;;3.28;0.98;;;1.50;99.90;;;;;;5030070;28;20040;-77
2022/04/01 01:21:09;;;;;;;5.38;1.30;;;1.60;99.90;;;;;;5020565;28;20059;-77
2022/04/01 01:23:36;;;;;;;4.68;1.10;;;1.60;99.90;;;;;;5032170;28;20785;-77
2022/04/01 01:26:02;;;;;;;2.83;1.05;;;1.60;99.90;;;;;;5026392;28;20044;-77
2022/04/01 01:28:28;;;;;;;3.58;1.00;;;1.90;99.90;;;;;;5030291;28;20087;-77
2022/04/01 01:30:54;;;;;;;4.07;1.58;;;1.60;99.90;;;;;;5024680;28;20053;-77
2022/04/01 01:33:21;;;;;;;3.33;0.75;;;1.60;99.90;;;;;;5032820;28;20056;-77
2022/04/01 01:35:47;;;;;;;5.70;0.90;;;1.60;99.90;;;;;;5035064;28;20140;-77
2022/04/01 01:38:17;;;;;;;3.75;1.05;;;1.60;99.90;;;;;;5021976;28;20591;-78
2022/04/01 01:40:43;;;;;;;2.78;0.90;;;1.60;99.90;;;;;;5027868;28;20061;-77
2022/04/01 01:43:09;;;;;;;4.78;1.25;;;1.80;99.90;;;;;;5027090;28;20049;-77
2022/04/01 01:45:35;;;;;;;3.03;1.13;;;1.70;99.90;;;;;;5021192;28;20041;-77
2022/04/01 01:48:00;;;;;;;4.93;1.33;;;1.70;99.90;;;;;;5024598;28;20056;-77
2022/04/01 01:55:56;;;;;;;3.28;1.08;;;1.70;99.90;;;;;;5030335;28;20060;-77
2022/04/01 01:58:21;;;;;;;3.25;0.95;;;1.70;99.90;;;;;;5024038;28;20050;-77
2022/04/01 02:00:47;;;;;;;4.50;1.10;;;1.70;99.90;;;;;;5025381;28;20041;-77
2022/04/01 02:03:12;;;;;;;3.97;1.25;;;1.80;99.90;;;;;;5028624;28;20040;-77
2022/04/01 02:05:38;;;;;;;3.08;1.08;;;1.80;99.90;;;;;;5030740;28;20104;-77
2022/04/01 02:08:05;;;;;;;3.95;1.27;;;1.80;99.90;;;;;;5028992;28;20052;-77
2022/04/01 02:10:32;;;;;;;3.40;1.17;;;1.80;99.90;;;;;;5025995;28;20225;-77
2022/04/01 02:12:58;;;;;;;6.53;1.13;;;1.80;99.90;;;;;;5026710;28;20049;-77
2022/04/01 02:15:27;;;;;;;5.75;1.42;;;1.80;99.90;;;;;;5021149;28;20144;-77
2022/04/01 02:17:53;;;;;;;3.83;0.95;;;2.00;99.90;;;;;;5019714;28;20076;-77
2022/04/01 02:20:21;;;;;;;2.83;1.30;;;1.90;99.90;;;;;;5028646;28;20053;-77
2022/04/01 02:22:47;;;;;;;3.88;1.13;;;1.90;99.90;;;;;;5023351;28;20404;-76
2022/04/01 02:25:13;;;;;;;2.80;0.90;;;2.00;99.90;;;;;;5032521;28;20049;-77
2022/04/01 02:27:39;;;;;;;4.63;1.17;;;1.90;99.90;;;;;;5034321;28;20052;-77
2022/04/01 02:30:10;;;;;;;4.57;1.65;;;1.90;99.90;;;;;;5026762;28;20042;-77
2022/04/01 02:32:40;;;;;;;4.28;1.02;;;1.90;99.90;;;;;;5034692;28;20076;-77
2022/04/01 02:35:07;;;;;;;3.50;1.10;;;1.90;99.90;;;;;;5024777;28;20050;-77
2022/04/01 02:37:33;;;;;;;2.50;1.13;;;1.80;99.90;;;;;;5019905;28;20076;-77
2022/04/01 02:39:59;;;;;;;2.63;0.80;;;1.80;99.90;;;;;;5023791;28;20142;-77
2022/04/01 02:42:25;;;;;;;2.83;1.20;;;1.80;99.90;;;;;;5014443;28;20152;-77
2022/04/01 02:44:50;;;;;;;2.70;1.08;;;2.10;99.90;;;;;;5020501;28;20038;-77
2022/04/01 02:47:16;;;;;;;3.67;1.00;;;1.80;99.90;;;;;;5024338;28;20791;-77
2022/04/01 02:49:42;;;;;;;2.83;1.10;;;1.80;99.90;;;;;;5022228;28;20084;-77
2022/04/01 02:52:08;;;;;;;4.63;1.20;;;1.80;99.90;;;;;;5028050;28;20493;-77
2022/04/01 02:54:34;;;;;;;3.35;1.00;;;1.80;99.90;;;;;;5027508;28;20115;-76
2022/04/01 02:57:02;;;;;;;4.03;1.08;;;1.80;99.90;;;;;;5029244;28;20103;-77
2022/04/01 02:59:29;;;;;;;2.55;1.00;;;1.80;99.90;;;;;;5027192;28;20084;-77
2022/04/01 03:01:55;;;;;;;4.80;1.10;;;1.80;99.90;;;;;;5034065;28;20045;-76
2022/04/01 03:04:21;;;;;;;3.88;1.30;;;1.80;99.90;;;;;;5028115;28;20065;-77
2022/04/01 03:06:47;;;;;;;4.10;1.25;;;1.80;99.90;;;;;;5034065;28;20045;-77
2022/04/01 03:09:13;;;;;;;2.40;1.00;;;1.80;99.90;;;;;;5025399;28;20590;-77
2022/04/01 03:11:40;;;;;;;4.45;1.25;;;1.80;99.90;;;;;;5025368;28;20049;-77
2022/04/01 03:14:08;;;;;;;5.28;1.00;;;1.80;99.90;;;;;;5034456;28;20080;-77
2022/04/01 03:16:35;;;;;;;3.15;1.02;;;1.80;99.90;;;;;;5032167;28;20855;-77
2022/04/01 03:19:01;;;;;;;3.03;1.00;;;1.80;99.90;;;;;;5034127;28;20049;-77
2022/04/01 03:21:29;;;;;;;3.50;0.95;;;1.80;99.90;;;;;;5027688;28;20115;-76
2022/04/01 03:23:55;;;;;;;6.13;1.10;;;1.80;99.90;;;;;;5026865;28;20640;-76
2022/04/01 03:26:21;;;;;;;5.88;1.02;;;1.80;99.90;;;;;;5029699;28;20045;-76
2022/04/01 03:28:47;;;;;;;5.18;1.08;;;1.80;99.90;;;;;;5027950;28;20052;-76
2022/04/01 03:31:14;;;;;;;3.20;1.15;;;1.80;99.90;;;;;;5035572;28;20045;-76
2022/04/01 03:33:44;;;;;;;3.63;0.93;;;1.80;99.90;;;;;;5037546;28;20098;-77
2022/04/01 03:36:10;;;;;;;5.97;1.10;;;1.80;99.90;;;;;;5035411;28;20394;-77
2022/04/01 03:38:38;;;;;;;5.10;1.00;;;1.80;99.90;;;;;;5036346;28;20045;-77
2022/04/01 03:41:08;;;;;;;4.35;0.95;;;1.80;99.90;;;;;;5028112;28;20052;-77
2022/04/01 03:43:35;;;;;;;4.35;1.20;;;1.80;99.90;;;;;;5036008;28;20100;-77
2022/04/01 03:46:08;;;;;;;3.75;1.33;;;1.80;99.90;;;;;;5028178;28;20049;-76
2022/04/01 03:48:59;;;;;;;4.30;0.95;;;1.90;99.90;;;;;;5031020;28;20457;-77
2022/04/01 03:51:25;;;;;;;3.22;1.02;;;1.90;99.90;;;;;;5033357;28;20106;-77
2022/04/01 03:53:57;;;;;;;4.40;1.00;;;1.90;99.90;;;;;;5032755;28;20048;-76
2022/04/01 03:56:29;;;;;;;5.50;1.10;;;1.90;99.90;;;;;;5029136;28;20450;-77
2022/04/01 03:59:04;;;;;;;3.75;0.80;;;1.90;99.90;;;;;;5027979;28;20057;-77
2022/04/01 04:01:31;;;;;;;3.63;0.98;;;1.90;99.90;;;;;;5035137;28;20076;-76
2022/04/01 04:04:00;;;;;;;2.65;0.90;;;1.90;99.90;;;;;;5037009;28;20065;-76
2022/04/01 04:06:26;;;;;;;3.67;0.88;;;1.90;99.90;;;;;;5035002;28;20098;-76
2022/04/01 04:08:57;;;;;;;2.50;1.02;;;1.90;99.90;;;;;;5029240;28;20049;-77
2022/04/01 04:11:28;;;;;;;5.10;1.35;;;1.90;99.90;;;;;;5041151;28;20053;-76
2022/04/01 04:13:55;;;;;;;5.07;0.80;;;1.90;99.90;;;;;;5033019;28;20782;-77
2022/04/01 04:16:31;;;;;;;5.53;1.23;;;1.90;99.90;;;;;;5022262;28;20067;-77
2022/04/01 04:19:07;;;;;;;4.25;0.93;;;1.90;99.90;;;;;;5027024;28;20564;-76
2022/04/01 04:22:17;;;;;;;10.48;1.40;;;1.90;99.90;;;;;;5029120;28;20045;-77
2022/04/01 04:24:58;;;;;;;3.65;1.00;;;1.90;99.90;;;;;;5033562;28;20110;-77
2022/04/01 04:27:29;;;;;;;4.13;0.90;;;1.90;99.90;;;;;;5026550;28;20080;-77
2022/04/01 04:30:07;;;;;;;3.05;0.57;;;2.00;99.90;;;;;;5026151;28;20053;-76
2022/04/01 04:32:35;;;;;;;4.88;1.17;;;1.90;99.90;;;;;;5029045;28;20807;-77
2022/04/01 04:35:06;;;;;;;3.63;1.23;;;1.90;99.90;;;;;;5032360;28;20053;-77
2022/04/01 04:37:35;;;;;;;3.90;1.10;;;1.90;99.90;;;;;;5034041;28;20087;-77
2022/04/01 04:40:01;;;;;;;13.57;1.25;;;1.90;99.90;;;;;;5034601;28;20692;-76
2022/04/01 04:42:28;;;;;;;5.38;0.80;;;1.90;99.90;;;;;;5004179;28;20060;-77
2022/04/01 04:44:54;;;;;;;2.83;0.80;;;1.90;99.90;;;;;;5025929;28;20437;-77
2022/04/01 04:47:28;;;;;;;2.38;0.68;;;1.90;99.90;;;;;;5023456;28;20064;-77
2022/04/01 04:49:58;;;;;;;4.72;0.80;;;1.90;99.90;;;;;;5037836;28;20044;-77
2022/04/01 04:52:30;;;;;;;3.95;0.82;;;1.90;99.90;;;;;;5031997;28;20435;-76
2022/04/01 04:54:56;;;;;;;5.38;0.90;;;1.90;99.90;;;;;;5022400;28;20065;-76
2022/04/01 04:57:24;;;;;;;3.95;1.00;;;1.80;99.90;;;;;;5034425;28;20638;-76
2022/04/01 04:59:51;;;;;;;4.43;0.95;;;1.80;99.90;;;;;;5035422;28;20058;-77
2022/04/01 05:02:27;;;;;;;6.05;0.90;;;1.80;99.90;;;;;;5036644;28;20503;-76
2022/04/01 05:05:03;;;;;;;4.30;0.80;;;1.80;99.90;;;;;;5027556;28;20188;-77
2022/04/01 05:08:01;;;;;;;3.25;0.77;;;1.80;99.90;;;;;;5019924;28;20220;-76
2022/04/01 05:10:30;;;;;;;2.13;0.80;;;1.80;99.90;;;;;;5029512;28;20044;-76
2022/04/01 05:13:08;;;;;;;3.33;0.60;;;1.80;99.90;;;;;;5036020;28;20746;-77
2022/04/01 05:15:36;;;;;;;4.80;0.80;;;1.70;99.90;;;;;;5027564;28;20092;-76
2022/04/01 05:19:00;;;;;;;4.20;0.82;;;1.80;99.90;;;;;;5032919;28;20118;-77
2022/04/01 05:21:29;;;;;;;3.88;0.85;;;1.80;99.90;;;;;;5003525;28;20144;-74
2022/04/01 05:24:01;;;;;;;3.47;1.73;;;1.80;99.90;;;;;;5021936;28;20061;-73
2022/04/01 05:26:40;;;;;;;4.10;0.90;;;1.80;99.90;;;;;;5036489;28;20061;-75
2022/04/01 05:29:13;;;;;;;5.68;0.80;;;1.80;99.90;;;;;;5024675;28;20049;-74
2022/04/01 05:31:55;;;;;;;2.80;0.90;;;1.80;99.90;;;;;;5025697;28;20052;-74
2022/04/01 05:34:39;;;;;;;4.03;1.13;;;1.80;99.90;;;;;;5039526;28;20056;-74
2022/04/01 05:37:05;;;;;;;4.05;1.05;;;1.80;99.90;;;;;;5030365;28;20060;-74
2022/04/01 05:39:34;;;;;;;6.93;1.10;;;1.90;99.90;;;;;;5035800;28;20801;-74
2022/04/01 05:42:00;;;;;;;3.00;0.65;;;2.00;99.90;;;;;;5030985;28;20052;-74
2022/04/01 05:44:26;;;;;;;4.28;0.93;;;2.00;99.90;;;;;;5032074;28;20065;-74
2022/04/01 05:46:54;;;;;;;3.55;0.88;;;1.90;99.90;;;;;;5035320;28;20041;-74
2022/04/01 05:49:21;;;;;;;5.75;1.02;;;2.00;99.90;;;;;;5032828;28;20080;-76
2022/04/01 05:51:48;;;;;;;4.05;0.93;;;2.00;99.90;;;;;;5038218;28;20052;-76
2022/04/01 05:54:19;;;;;;;4.97;1.10;;;2.00;99.90;;;;;;5023217;28;20140;-77
2022/04/01 05:56:47;;;;;;;4.85;0.82;;;2.10;99.90;;;;;;5034113;28;20048;-76
2022/04/01 05:59:15;;;;;;;5.55;0.90;;;2.10;99.90;;;;;;5030383;28;20100;-76
2022/04/01 06:01:59;;;;;;;2.88;0.70;;;2.10;99.90;;;;;;5026252;28;20131;-75
2022/04/01 06:04:56;;;;;;;2.03;0.60;;;2.10;99.90;;;;;;5027325;28;20572;-78
2022/04/01 06:07:58;;;;;;;2.78;1.02;;;2.20;99.90;;;;;;5030954;28;20733;-80
2022/04/01 06:10:30;;;;;;;4.07;0.95;;;2.20;99.90;;;;;;5031479;28;20052;-77
2022/04/01 06:13:28;;;;;;;2.60;1.10;;;2.30;99.90;;;;;;5034941;28;20037;-77
2022/04/01 06:16:16;;;;;;;3.00;0.70;;;2.30;99.90;;;;;;5034341;28;20122;-79
2022/04/01 06:18:47;;;;;;;4.82;0.95;;;2.40;99.90;;;;;;5037872;28;20487;-79
2022/04/01 06:21:22;;;;;;;8.10;1.75;;;2.40;99.90;;;;;;5026877;28;20046;-78
2022/04/01 06:23:51;;;;;;;4.85;1.00;;;2.40;99.90;;;;;;5023314;28;20049;-77
2022/04/01 06:26:17;;;;;;;4.82;1.58;;;2.50;99.90;;;;;;5026423;28;20084;-77
2022/04/01 06:29:17;;;;;;;4.82;1.00;;;2.50;99.90;;;;;;5029732;28;20412;-77
2022/04/01 06:31:51;;;;;;;4.35;1.15;;;2.50;99.90;;;;;;5022701;28;20465;-78
2022/04/01 06:34:40;;;;;;;4.72;1.58;;;2.60;99.90;;;;;;5029250;28;20064;-78
2022/04/01 06:37:14;;;;;;;4.43;0.90;;;2.60;99.90;;;;;;5034551;28;20041;-78
2022/04/01 06:39:45;;;;;;;6.15;1.00;;;2.60;99.90;;;;;;5028573;28;20045;-78
2022/04/01 06:42:20;;;;;;;5.85;1.02;;;2.70;99.90;;;;;;5033907;28;20343;-78
2022/04/01 06:44:46;;;;;;;;;;;2.70;99.90;;;;;;5029555;28;20048;-79
2022/04/01 06:47:11;;;;;;;5.78;1.08;;;2.70;99.90;;;;;;5036726;28;19920;-78
2022/04/01 06:49:37;;;;;;;6.03;1.10;;;2.80;99.90;;;;;;5032975;28;20052;-78
2022/04/01 06:52:03;;;;;;;2.35;0.80;;;2.80;99.90;;;;;;5033621;28;20041;-79
2022/04/01 06:54:29;;;;;;;5.30;0.95;;;2.80;99.90;;;;;;5029310;28;20050;-79
2022/04/01 06:56:55;;;;;;;3.72;0.95;;;2.80;99.90;;;;;;5035799;28;20131;-78
2022/04/01 06:59:20;;;;;;;1.95;0.75;;;2.90;99.90;;;;;;5025564;28;20622;-79
2022/04/01 07:01:46;;;;;;;3.58;0.90;;;2.80;99.90;;;;;;5034738;28;20048;-79
2022/04/01 07:04:12;;;;;;;5.18;1.10;;;3.00;99.90;;;;;;5041102;28;20041;-78
2022/04/01 07:06:38;;;;;;;3.63;1.05;;;2.90;99.90;;;;;;5036634;28;20045;-79
2022/04/01 07:09:04;;;;;;;3.55;0.75;;;2.90;99.90;;;;;;5034547;28;20408;-78
2022/04/01 07:11:30;;;;;;;5.15;0.90;;;3.00;99.90;;;;;;5031537;28;20053;-79
2022/04/01 07:13:55;;;;;;;3.40;1.20;;;3.00;99.90;;;;;;5024356;28;20099;-79
2022/04/01 07:16:21;;;;;;;3.13;1.00;;;3.00;99.90;;;;;;5031407;28;20451;-79
2022/04/01 07:18:46;;;;;;;4.07;1.45;;;3.00;99.90;;;;;;5032597;28;20072;-78
2022/04/01 07:21:13;;;;;;;3.25;1.35;;;3.10;99.90;;;;;;5036115;28;20148;-79
2022/04/01 07:23:38;;;;;;;5.43;0.93;;;3.10;99.90;;;;;;5033024;28;20075;-78
2022/04/01 07:26:04;;;;;;;2.60;1.25;;;3.00;99.90;;;;;;5024753;28;20049;-80
2022/04/01 07:28:30;;;;;;;2.00;0.82;;;3.10;99.90;;;;;;5033721;28;20494;-79
2022/04/01 07:30:55;;;;;;;3.72;1.08;;;3.00;99.90;;;;;;5026331;28;20051;-78
2022/04/01 07:33:21;;;;;;;8.05;1.05;;;3.00;99.90;;;;;;5030018;28;20052;-79
2022/04/01 07:35:48;;;;;;;3.70;0.80;;;3.10;99.90;;;;;;5034187;28;20070;-79
2022/04/01 07:38:14;;;;;;;4.70;1.00;;;3.10;99.90;;;;;;5028135;28;20053;-79
2022/04/01 07:40:40;;;;;;;5.45;0.80;;;3.30;99.90;;;;;;5029492;28;20084;-79
2022/04/01 07:43:06;;;;;;;3.13;0.95;;;3.20;99.90;;;;;;5032428;28;20127;-78
2022/04/01 07:45:35;;;;;;;4.10;0.98;;;3.10;99.90;;;;;;5032420;28;20045;-78
2022/04/01 07:48:01;;;;;;;5.03;1.20;;;3.20;99.90;;;;;;5026572;28;20107;-78
2022/04/01 07:50:27;;;;;;;5.28;1.02;;;3.20;99.90;;;;;;5035438;28;20049;-77
2022/04/01 07:52:54;;;;;;;4.82;1.38;;;3.20;99.90;;;;;;5032818;28;20045;-78
2022/04/01 07:55:20;;;;;;;3.92;0.90;;;3.20;99.90;;;;;;5029481;28;20059;-78
2022/04/01 07:57:49;;;;;;;4.70;1.20;;;3.20;99.90;;;;;;5029384;28;20507;-77
2022/04/01 08:00:16;;;;;;;5.78;1.20;;;3.20;99.90;;;;;;5022098;28;20773;-78
2022/04/01 08:02:43;;;;;;;4.28;1.10;;;3.20;99.90;;;;;;5022202;28;20629;-78
2022/04/01 08:05:09;;;;;;;5.80;1.13;;;3.20;99.90;;;;;;5027792;28;20400;-78
2022/04/01 08:07:34;;;;;;;4.00;1.30;;;3.20;99.90;;;;;;5035128;28;20052;-78
2022/04/01 08:10:00;;;;;;;3.15;1.25;;;3.10;99.90;;;;;;5028969;28;20041;-78
2022/04/01 08:12:26;;;;;;;2.53;0.90;;;3.10;99.90;;;;;;5034752;28;20060;-78
2022/04/01 08:14:52;;;;;;;3.33;1.08;;;3.10;99.90;;;;;;5028690;28;20822;-78
2022/04/01 08:17:17;;;;;;;6.38;1.35;;;3.10;99.90;;;;;;5026186;28;20045;-78
2022/04/01 08:19:44;;;;;;;4.07;0.98;;;3.10;99.90;;;;;;5031043;28;20052;-78
2022/04/01 08:22:09;;;;;;;3.92;0.93;;;3.10;99.90;;;;;;5031889;28;20057;-78
2022/04/01 08:24:36;;;;;;;6.43;1.27;;;3.10;99.90;;;;;;5030639;28;20131;-77
2022/04/01 08:27:02;;;;;;;3.10;1.05;;;3.10;99.90;;;;;;5024760;28;20620;-78
2022/04/01 08:29:29;;;;;;;4.88;1.23;;;3.10;99.90;;;;;;5023283;28;20041;-78
2022/04/01 08:31:55;;;;;;;3.55;1.30;;;3.10;99.90;;;;;;5023084;28;20041;-78
2022/04/01 08:34:21;;;;;;;4.18;1.85;;;3.10;99.90;;;;;;5032686;28;20028;-78
2022/04/01 08:36:47;;;;;;;3.10;1.13;;;3.10;99.90;;;;;;5029442;28;20796;-78
2022/04/01 08:39:12;;;;;;;5.38;1.55;;;3.00;99.90;;;;;;5031702;28;20137;-78
2022/04/01 08:41:38;;;;;;;5.07;1.92;;;3.00;99.90;;;;;;5021923;28;20039;-78
2022/04/01 08:44:04;;;;;;;4.53;1.70;;;2.90;99.90;;;;;;5032903;28;20056;-78
2022/04/01 08:46:30;;;;;;;5.22;2.08;;;2.90;99.90;;;;;;5027153;28;20056;-77
2022/04/01 08:48:56;;;;;;;7.18;2.75;;;2.90;99.90;;;;;;5028555;28;20053;-78
2022/04/01 08:51:22;;;;;;;6.68;3.08;;;2.90;99.90;;;;;;5026866;28;20060;-78
2022/04/01 08:53:49;;;;;;;5.82;2.70;;;2.90;99.90;;;;;;5025204;28;20160;-77
2022/04/01 08:56:19;;;;;;;5.95;2.53;;;2.90;99.90;;;;;;5021000;28;20053;-78
2022/04/01 08:58:45;;;;;;;7.88;3.03;;;2.90;99.90;;;;;;5028908;28;20476;-77
2022/04/01 09:01:12;;;;;;;6.30;3.17;;;2.90;99.90;;;;;;5028668;28;20702;-77
2022/04/01 09:03:37;;;;;;;6.38;3.33;;;3.00;99.90;;;;;;5029876;28;20045;-78
2022/04/01 09:06:05;;;;;;;7.05;3.70;;;3.00;99.90;;;;;;5033595;28;20515;-78
2022/04/01 09:08:35;;;;;;;9.13;3.85;;;3.10;99.90;;;;;;5032312;28;20712;-78
2022/04/01 09:11:02;;;;;;;8.73;4.10;;;3.20;99.90;;;;;;5037940;28;20053;-78
2022/04/01 09:13:31;;;;;;;6.22;3.65;;;3.30;99.90;;;;;;5030601;28;20049;-78
2022/04/01 09:15:57;;;;;;;8.05;4.45;;;3.30;99.90;;;;;;5035662;28;20041;-78
2022/04/01 09:18:35;;;;;;;10.05;3.47;;;3.30;99.90;;;;;;5027698;28;20553;-77
2022/04/01 09:21:01;;;;;;;8.75;3.30;;;3.30;99.90;;;;;;5021551;28;20892;-80
2022/04/01 09:23:27;;;;;;;7.13;2.97;;;3.30;99.90;;;;;;5027085;28;20041;-79
2022/04/01 09:25:53;;;;;;;5.30;2.53;;;3.30;99.90;;;;;;5028536;28;20053;-79
2022/04/01 09:28:30;;;;;;;7.45;3.38;;;3.20;99.90;;;;;;5024813;28;20049;-78
2022/04/01 09:31:10;;;;;;;11.48;2.85;;;3.20;99.90;;;;;;5032364;28;20060;-78
2022/04/01 09:33:42;;;;;;;6.03;2.67;;;3.30;99.90;;;;;;5033673;28;20052;-78
2022/04/01 09:36:10;;;;;;;10.63;3.80;;;3.30;99.90;;;;;;5028180;28;20503;-78
2022/04/01 09:38:36;;;;;;;6.72;2.70;;;3.30;99.90;;;;;;5030963;28;20116;-79
2022/04/01 09:41:07;;;;;;;6.30;2.78;;;3.50;99.90;;;;;;5029728;28;20091;-80
2022/04/01 09:43:41;;;;;;;5.88;2.97;;;3.60;99.90;;;;;;5027411;28;20052;-79
2022/04/01 09:46:22;;;;;;;6.97;3.03;;;3.60;99.90;;;;;;5038579;28;20088;-79
2022/04/01 09:48:48;;;;;;;5.20;2.83;;;3.70;99.90;;;;;;5025378;28;20119;-79
2022/04/01 09:51:14;;;;;;;8.15;3.38;;;3.90;99.90;;;;;;5037977;28;20155;-79
2022/04/01 09:53:40;;;;;;;7.70;2.95;;;3.80;99.90;;;;;;5033396;28;20071;-79
2022/04/01 09:56:06;;;;;;;5.30;3.08;;;3.90;99.90;;;;;;5034068;28;20056;-79
2022/04/01 09:58:32;;;;;;;7.80;3.55;;;4.00;99.90;;;;;;5038827;28;20522;-79
2022/04/01 10:01:01;;;;;;;8.75;3.25;;;4.00;99.90;;;;;;5035248;28;20056;-79
2022/04/01 10:03:27;;;;;;;6.93;2.83;;;4.00;99.90;;;;;;5039189;28;20489;-79
2022/04/01 10:05:53;;;;;;;7.55;3.10;;;4.00;99.90;;;;;;5031711;28;20056;-79
2022/04/01 10:08:23;;;;;;;6.70;2.85;;;4.10;99.90;;;;;;5028428;28;20045;-79
2022/04/01 10:10:49;;;;;;;5.55;3.00;;;4.10;99.90;;;;;;5034996;28;20085;-79
2022/04/01 10:13:32;;;;;;;6.22;2.85;;;4.20;99.90;;;;;;5038032;28;20123;-79
2022/04/01 10:15:58;;;;;;;5.80;2.58;;;4.20;99.90;;;;;;5034985;28;20511;-79
2022/04/01 10:18:25;;;;;;;5.47;2.40;;;4.30;99.90;;;;;;5037348;28;20416;-79
2022/04/01 10:20:55;;;;;;;4.03;1.85;;;4.50;99.90;;;;;;5034324;28;20846;-79
2022/04/01 10:23:23;;;;;;;5.13;1.60;;;4.30;99.90;;;;;;5038634;28;20045;-79
2022/04/01 10:25:59;;;;;;;4.32;1.60;;;4.20;99.90;;;;;;5038480;28;20051;-79
2022/04/01 10:28:26;;;;;;;8.43;2.08;;;4.20;99.90;;;;;;5038343;28;20071;-79
2022/04/01 10:30:57;;;;;;;4.22;2.00;;;4.30;99.90;;;;;;5038706;28;20049;-79
2022/04/01 10:33:33;;;;;;;7.75;2.00;;;4.30;99.90;;;;;;5028859;28;20767;-79
2022/04/01 10:35:59;;;;;;;4.82;1.52;;;4.40;99.90;;;;;;5038395;28;20080;-79
2022/04/01 10:38:29;;;;;;;3.53;1.60;;;4.40;99.90;;;;;;5038985;28;20794;-79
2022/04/01 10:41:12;;;;;;;5.78;1.88;;;4.40;99.90;;;;;;5034031;28;20136;-79
2022/04/01 10:43:40;;;;;;;4.15;1.60;;;4.60;99.90;;;;;;5038906;28;20126;-79
2022/04/01 10:46:15;;;;;;;6.85;1.98;;;4.60;99.90;;;;;;5032729;28;20110;-79
2022/04/01 10:52:04;;;;;;;3.13;1.33;;;4.70;99.90;;;;;;5034098;28;19925;-80
2022/04/01 10:54:29;;;;;;;6.22;1.77;;;4.70;99.90;;;;;;5028817;28;20065;-78
2022/04/01 10:57:05;;;;;;;5.25;1.60;;;4.80;99.90;;;;;;5024244;28;20053;-79
2022/04/01 10:59:45;;;;;;;5.68;1.92;;;4.80;99.90;;;;;;5027459;28;20477;-79
2022/04/01 11:02:15;;;;;;;4.90;1.40;;;4.70;99.90;;;;;;5026188;28;20053;-79
2022/04/01 11:04:43;;;;;;;3.67;1.50;;;4.60;99.90;;;;;;5026143;28;20160;-79
2022/04/01 11:07:17;;;;;;;4.18;1.30;;;4.50;99.90;;;;;;5028273;28;20077;-79
2022/04/01 11:09:47;;;;;;;5.15;1.42;;;4.20;99.90;;;;;;5026509;28;20071;-79
2022/04/01 11:12:19;;;;;;;4.88;1.60;;;4.50;99.90;;;;;;5036195;28;20134;-79
2022/04/01 11:17:26;;;;;;;5.95;1.40;;;4.50;99.90;;;;;;5032205;28;20049;-79
2022/04/01 11:20:22;;;;;;;4.57;1.20;;;4.40;99.90;;;;;;5020398;28;20041;-79
2022/04/01 11:22:54;;;;;;;5.03;1.30;;;4.40;99.90;;;;;;5032707;28;20053;-79
2022/04/01 11:25:27;;;;;;;2.83;1.20;;;4.40;99.90;;;;;;5028755;28;20061;-78
2022/04/01 11:28:14;;;;;;;3.78;1.50;;;4.60;99.90;;;;;;5025824;28;20053;-79
2022/04/01 11:30:40;;;;;;;4.60;1.33;;;4.70;99.90;;;;;;5031191;28;20061;-79
2022/04/01 11:33:14;;;;;;;3.15;1.10;;;4.70;99.90;;;;;;5034436;28;20124;-79
2022/04/01 11:35:42;;;;;;;9.57;2.13;;;4.70;99.90;;;;;;5037532;28;20199;-78
2022/04/01 11:38:09;;;;;;;4.85;1.30;;;4.20;99.90;;;;;;5029721;28;20054;-79
2022/04/01 11:40:39;;;;;;;4.00;1.52;;;4.90;99.90;;;;;;5034616;28;20606;-79
2022/04/01 11:43:15;;;;;;;3.50;1.60;;;5.00;99.90;;;;;;5033723;28;20054;-79
2022/04/01 11:45:45;;;;;;;2.65;1.20;;;4.90;99.90;;;;;;5036736;28;20052;-78
2022/04/01 11:48:17;;;;;;;4.90;1.38;;;5.00;99.90;;;;;;5032881;28;20136;-77
2022/04/01 11:50:45;;;;;;;6.13;1.55;;;5.10;99.90;;;;;;5033593;28;20115;-78
2022/04/01 11:53:32;;;;;;;3.60;1.55;;;5.20;99.90;;;;;;5033961;28;20111;-78
2022/04/01 11:55:59;;;;;;;3.63;1.35;;;5.30;99.90;;;;;;5036055;28;20045;-78
2022/04/01 11:58:26;;;;;;;3.53;1.30;;;5.40;99.90;;;;;;5035799;28;20068;-79
2022/04/01 12:00:52;;;;;;;7.40;1.63;;;5.50;99.90;;;;;;5032606;28;20155;-78
2022/04/01 12:03:18;;;;;;;5.35;1.45;;;5.60;99.90;;;;;;5034604;28;20041;-79
2022/04/01 12:05:44;;;;;;;4.13;1.30;;;5.70;99.90;;;;;;5030724;28;20042;-79
2022/04/01 12:10:55;;;;;;;;;;;5.90;99.90;;;;;;5028985;28;20140;-78
2022/04/01 12:13:22;;;;;;;7.10;2.20;;;6.10;99.90;;;;;;5026472;28;19925;-79
2022/04/01 12:15:49;;;;;;;4.50;1.13;;;6.20;99.90;;;;;;5030858;28;20805;-80
2022/04/01 12:18:16;;;;;;;5.10;1.48;;;6.30;99.90;;;;;;5029936;28;20659;-79
2022/04/01 12:20:42;;;;;;;4.38;1.23;;;6.40;99.90;;;;;;5039033;28;20037;-79
2022/04/01 12:23:08;;;;;;;3.00;1.30;;;6.40;99.90;;;;;;5032412;28;20045;-80
2022/04/01 12:25:37;;;;;;;4.57;1.55;;;6.50;99.90;;;;;;5040592;28;20059;-79
2022/04/01 12:28:08;;;;;;;3.15;1.38;;;6.50;99.90;;;;;;5035120;28;20055;-79
2022/04/01 12:30:37;;;;;;;5.20;1.55;;;6.50;99.90;;;;;;5031213;28;20074;-79
2022/04/01 12:33:07;;;;;;;3.58;1.13;;;6.60;99.90;;;;;;5027657;28;20045;-79
2022/04/01 12:35:34;;;;;;;4.22;0.90;;;6.50;99.90;;;;;;5028508;28;20151;-79
2022/04/01 12:38:08;;;;;;;2.92;1.13;;;6.50;99.90;;;;;;5024671;28;20049;-79
2022/04/01 12:40:45;;;;;;;5.07;1.00;;;6.50;99.90;;;;;;5027107;28;20046;-79
2022/04/01 12:43:36;;;;;;;3.78;1.20;;;6.40;99.90;;;;;;5023386;28;20495;-79
2022/04/01 12:46:16;;;;;;;5.18;1.10;;;6.40;99.90;;;;;;5029800;28;20048;-79
2022/04/01 12:48:47;;;;;;;3.97;1.50;;;6.40;99.90;;;;;;5025746;28;20044;-78
2022/04/01 12:51:24;;;;;;;5.30;1.30;;;6.40;99.90;;;;;;5031022;28;20066;-78
2022/04/01 12:54:10;;;;;;;3.20;1.20;;;6.40;99.90;;;;;;5032597;28;20073;-78
2022/04/01 12:56:38;;;;;;;4.07;1.30;;;6.30;99.90;;;;;;5027735;28;20160;-78
2022/04/01 12:59:10;;;;;;;3.28;1.40;;;6.30;99.90;;;;;;5032595;28;20053;-78
2022/04/01 13:01:38;;;;;;;4.07;1.48;;;6.20;99.90;;;;;;5035884;28;20106;-78
2022/04/01 13:04:07;;;;;;;5.00;1.38;;;6.20;99.90;;;;;;5030850;28;20049;-77
2022/04/01 13:06:33;;;;;;;5.15;1.55;;;6.20;99.90;;;;;;5032010;28;20189;-78
2022/04/01 13:09:08;;;;;;;4.93;1.42;;;6.20;99.90;;;;;;5032770;28;20716;-77
2022/04/01 13:11:46;;;;;;;3.58;1.25;;;6.30;99.90;;;;;;5033274;28;20049;-77
2022/04/01 13:14:24;;;;;;;9.30;1.27;;;6.30;99.90;;;;;;5033110;28;20491;-78
2022/04/01 13:16:52;;;;;;;8.57;1.40;;;6.40;99.90;;;;;;5034516;28;20712;-78
2022/04/01 13:19:29;;;;;;;5.53;1.23;;;6.40;99.90;;;;;;5032479;28;20049;-78
2022/04/01 13:22:00;;;;;;;4.80;1.30;;;6.40;99.90;;;;;;5031005;28;20056;-78
2022/04/01 13:24:33;;;;;;;3.42;1.23;;;6.40;99.90;;;;;;5029193;28;20041;-77